CheckWX is a tool to help pilots better visualize weather data.  It is not intended as a substitute for an official pre-flight weather briefing.

21:44:53 UTC

KHRJ METAR
Harnett Regional Jetport Airport
Erwin, North Carolina, USA
Current

30 mins ago

KHRJ 112115Z AUTO 26003KT 10SM CLR 33/18 A2980 RMK AO2 T03270184
Observed
Jul-11 @ 21:15 UTC
Wind
  • 260° at 3 KTS
Visibility
10 SM
Flight Rules
VFR
Cloud Levels
  • Clear skies
Temperature
33°C / 91°F
Dewpoint
18°C / 64°F
Humidity
41%
Altimeter
29.8" Hg
Pressure
1009.12 hPa
Previous

50 mins ago

KHRJ 112055Z AUTO 26004KT 10SM SCT085 33/19 A2981 RMK AO2 T03310186
Observed
Jul-11 @ 20:55 UTC
Wind
  • 260° at 4 KTS
Visibility
10 SM
Flight Rules
VFR
Cloud Levels
  • Scattered at 8,500' AGL
Temperature
33°C / 91°F
Dewpoint
19°C / 66°F
Humidity
44%
Altimeter
29.81" Hg
Pressure
1009.52 hPa
Previous

1 hour ago

KHRJ 112035Z AUTO 22005KT 10SM CLR 33/19 A2981 RMK AO2 T03330188
Observed
Jul-11 @ 20:35 UTC
Wind
  • 220° at 5 KTS
Visibility
10 SM
Flight Rules
VFR
Cloud Levels
  • Clear skies
Temperature
33°C / 91°F
Dewpoint
19°C / 66°F
Humidity
44%
Altimeter
29.81" Hg
Pressure
1009.52 hPa